Time;durP1;ratioP1;P1;durP2;ratioP2;P2;SDS_P1;SDS_P2;PMS_P1;PMS_P2;Temp;Humidity;BMP_temperature;BMP_pressure;BME280_temperature;BME280_humidity;BME280_pressure;Samples;Min_cycle;Max_cycle;Signal;HPM_P1;HPM_P2
2023/05/18 00:02:06;;;;;;;2.42;1.05;;;8.30;99.90;;;;;;5003354;28;20160;-59
2023/05/18 00:04:34;;;;;;;1.05;0.63;;;8.30;99.90;;;;;;5002014;28;20057;-68
2023/05/18 00:07:03;;;;;;;2.15;1.33;;;8.30;99.90;;;;;;5000013;28;20458;-60
2023/05/18 00:09:33;;;;;;;1.40;0.50;;;8.30;99.90;;;;;;4998665;28;20054;-62
2023/05/18 00:12:02;;;;;;;1.45;0.70;;;8.30;99.90;;;;;;4998791;28;20061;-61
2023/05/18 00:14:30;;;;;;;2.03;0.85;;;8.30;99.90;;;;;;5001348;28;20115;-62
2023/05/18 00:17:00;;;;;;;2.78;0.70;;;8.20;99.90;;;;;;5002143;28;20057;-66
2023/05/18 00:19:28;;;;;;;2.63;0.70;;;8.20;99.90;;;;;;4999766;28;20058;-63
2023/05/18 00:21:56;;;;;;;2.22;0.47;;;8.20;99.90;;;;;;4997608;28;20062;-62
2023/05/18 00:24:23;;;;;;;3.47;0.52;;;8.20;99.90;;;;;;5002812;28;20750;-69
2023/05/18 00:26:50;;;;;;;2.28;0.47;;;8.20;99.90;;;;;;5001719;28;20046;-69
2023/05/18 00:29:17;;;;;;;1.85;0.52;;;8.20;99.90;;;;;;4999957;28;20048;-62
2023/05/18 00:31:45;;;;;;;2.08;0.73;;;8.20;99.90;;;;;;4999067;28;20049;-71
2023/05/18 00:34:13;;;;;;;1.83;0.40;;;8.20;99.90;;;;;;5003306;28;20595;-65
2023/05/18 00:36:41;;;;;;;2.20;0.70;;;8.20;99.90;;;;;;4992539;28;20156;-65
2023/05/18 00:39:09;;;;;;;4.25;0.93;;;8.10;99.90;;;;;;5000211;28;20061;-65
2023/05/18 00:41:36;;;;;;;1.70;0.68;;;8.10;99.90;;;;;;4999271;28;20104;-63
2023/05/18 00:44:03;;;;;;;1.60;0.30;;;8.20;99.90;;;;;;4985133;28;20093;-66
2023/05/18 00:46:31;;;;;;;2.70;0.60;;;8.10;99.90;;;;;;5002325;28;20058;-66
2023/05/18 00:49:00;;;;;;;5.68;0.70;;;8.10;99.90;;;;;;5001940;28;20053;-63
2023/05/18 00:51:30;;;;;;;0.93;0.50;;;8.10;99.90;;;;;;4983407;28;20049;-62
2023/05/18 00:54:00;;;;;;;4.60;1.08;;;8.10;99.90;;;;;;4999348;28;20062;-62
2023/05/18 00:56:27;;;;;;;4.37;0.63;;;8.00;99.90;;;;;;4997419;28;20069;-63
2023/05/18 00:58:56;;;;;;;4.65;1.15;;;8.10;99.90;;;;;;5001302;28;20053;-64
2023/05/18 01:01:34;;;;;;;4.97;0.80;;;8.00;99.90;;;;;;5000348;28;20045;-65
2023/05/18 01:04:03;;;;;;;3.65;1.10;;;8.00;99.90;;;;;;5002600;28;20420;-67
2023/05/18 01:06:34;;;;;;;2.28;1.13;;;8.00;99.90;;;;;;5000837;28;20056;-69
2023/05/18 01:09:05;;;;;;;1.77;0.60;;;8.00;99.90;;;;;;4984536;28;20060;-70
2023/05/18 01:11:40;;;;;;;3.47;1.05;;;8.00;99.90;;;;;;4978079;28;20054;-64
2023/05/18 01:14:31;;;;;;;3.53;1.00;;;7.90;99.90;;;;;;5002013;28;20057;-60
2023/05/18 01:17:15;;;;;;;1.95;1.13;;;8.00;99.90;;;;;;5001850;28;20067;-68
2023/05/18 01:20:15;;;;;;;2.35;1.30;;;7.90;99.90;;;;;;4999939;28;20050;-62
2023/05/18 01:23:20;;;;;;;3.40;0.43;;;7.90;99.90;;;;;;4962239;28;20130;-63
2023/05/18 01:25:52;;;;;;;2.30;0.95;;;7.90;99.90;;;;;;4913661;29;20059;-64
2023/05/18 01:28:28;;;;;;;5.18;2.35;;;7.90;99.90;;;;;;4986026;28;20046;-63
2023/05/18 01:30:57;;;;;;;4.65;0.80;;;7.90;99.90;;;;;;4983874;28;20060;-69
2023/05/18 01:33:24;;;;;;;2.30;1.95;;;7.90;99.90;;;;;;4998739;28;20050;-60
2023/05/18 01:35:52;;;;;;;1.70;1.02;;;7.90;99.90;;;;;;5000460;28;20062;-63
2023/05/18 01:38:22;;;;;;;4.90;0.90;;;7.90;99.90;;;;;;4982863;28;20061;-61
2023/05/18 01:41:02;;;;;;;11.40;1.17;;;7.90;99.90;;;;;;5001553;28;20053;-63
2023/05/18 01:43:33;;;;;;;2.92;0.73;;;7.90;99.90;;;;;;4997518;28;20065;-67
2023/05/18 01:46:12;;;;;;;3.30;0.70;;;7.80;99.90;;;;;;4984042;28;20408;-63
2023/05/18 01:48:47;;;;;;;2.75;0.70;;;7.80;99.90;;;;;;4998247;28;20050;-68
2023/05/18 01:51:19;;;;;;;7.03;0.85;;;7.80;99.90;;;;;;4974824;28;20046;-68
2023/05/18 01:53:55;;;;;;;2.20;0.77;;;7.80;99.90;;;;;;4997323;28;20046;-70
2023/05/18 01:56:23;;;;;;;1.23;0.60;;;7.80;99.90;;;;;;5001127;28;20049;-60
2023/05/18 01:58:52;;;;;;;2.22;0.47;;;7.80;99.90;;;;;;5000727;28;20077;-63
2023/05/18 02:01:21;;;;;;;1.23;0.68;;;7.80;99.90;;;;;;4982086;28;20546;-62
2023/05/18 02:03:49;;;;;;;2.63;0.70;;;7.70;99.90;;;;;;4999584;28;20054;-61
2023/05/18 02:06:17;;;;;;;1.65;0.90;;;7.80;99.90;;;;;;4983246;28;20233;-60
2023/05/18 02:08:43;;;;;;;0.70;0.70;;;7.70;99.90;;;;;;4984284;28;20443;-60
2023/05/18 02:11:10;;;;;;;5.00;0.52;;;7.70;99.90;;;;;;4983012;28;20062;-65
2023/05/18 02:13:38;;;;;;;4.32;0.98;;;7.70;99.90;;;;;;4973726;28;20479;-61
2023/05/18 02:16:06;;;;;;;1.77;0.90;;;7.70;99.90;;;;;;4985432;28;20054;-63
2023/05/18 02:18:35;;;;;;;2.30;1.00;;;7.70;99.90;;;;;;4983300;28;20110;-68
2023/05/18 02:21:02;;;;;;;3.67;0.88;;;7.70;99.90;;;;;;4982440;28;20050;-65
2023/05/18 02:23:30;;;;;;;2.50;0.65;;;7.70;99.90;;;;;;4981801;28;20054;-64
2023/05/18 02:25:57;;;;;;;1.40;1.00;;;7.70;99.90;;;;;;4980234;28;20105;-61
2023/05/18 02:28:24;;;;;;;2.55;1.45;;;7.70;99.90;;;;;;4984238;28;20050;-66
2023/05/18 02:30:51;;;;;;;1.00;0.75;;;7.70;99.90;;;;;;4980310;28;20046;-61
2023/05/18 02:33:24;;;;;;;5.70;0.77;;;7.70;99.90;;;;;;4985332;28;20046;-62
2023/05/18 02:35:52;;;;;;;1.27;0.68;;;7.70;99.90;;;;;;4984118;28;20627;-64
2023/05/18 02:38:20;;;;;;;2.40;0.50;;;7.60;99.90;;;;;;4982871;28;20058;-63
2023/05/18 02:40:47;;;;;;;2.33;0.85;;;7.60;99.90;;;;;;4981695;28;20109;-69
2023/05/18 02:43:15;;;;;;;3.50;0.90;;;7.60;99.90;;;;;;4982699;28;20116;-63
2023/05/18 02:45:43;;;;;;;2.47;0.77;;;7.60;99.90;;;;;;4979279;28;20054;-68
2023/05/18 02:48:10;;;;;;;3.80;0.82;;;7.60;99.90;;;;;;4974083;28;20046;-61
2023/05/18 02:50:37;;;;;;;3.03;0.52;;;7.60;99.90;;;;;;4972971;28;20575;-69
2023/05/18 02:53:04;;;;;;;3.30;1.00;;;7.60;99.90;;;;;;4983844;28;20539;-62
2023/05/18 02:55:31;;;;;;;1.48;0.80;;;7.50;99.90;;;;;;4982309;28;20166;-62
2023/05/18 02:58:21;;;;;;;2.03;1.67;;;7.60;99.90;;;;;;4981224;28;20084;-62
2023/05/18 03:01:08;;;;;;;1.25;0.80;;;7.60;99.90;;;;;;4982070;28;20505;-65
2023/05/18 03:03:41;;;;;;;2.20;1.13;;;7.60;99.90;;;;;;4978936;28;20054;-66
2023/05/18 03:06:08;;;;;;;5.05;0.90;;;7.60;99.90;;;;;;4980868;28;20082;-68
2023/05/18 03:08:39;;;;;;;3.38;1.10;;;7.60;99.90;;;;;;4985114;28;20100;-63
2023/05/18 03:11:08;;;;;;;1.27;0.75;;;7.60;99.90;;;;;;4982485;28;20094;-62
2023/05/18 03:13:35;;;;;;;2.13;0.73;;;7.60;99.90;;;;;;4981299;28;20121;-63
2023/05/18 03:16:02;;;;;;;1.73;0.80;;;7.60;99.90;;;;;;4982437;28;20069;-65
2023/05/18 03:18:29;;;;;;;5.07;1.33;;;7.60;99.90;;;;;;4982118;28;20109;-65
2023/05/18 03:21:00;;;;;;;2.45;0.80;;;7.70;99.90;;;;;;4983778;28;20753;-63
2023/05/18 03:23:29;;;;;;;5.43;1.25;;;7.70;99.90;;;;;;4997657;28;20514;-63
2023/05/18 03:25:56;;;;;;;8.02;0.85;;;7.60;99.90;;;;;;4982008;28;20086;-64
2023/05/18 03:28:26;;;;;;;7.35;1.80;;;7.70;99.90;;;;;;4982684;28;20042;-62
2023/05/18 03:30:54;;;;;;;1.98;0.75;;;7.70;99.90;;;;;;4983578;28;20074;-60
2023/05/18 03:33:21;;;;;;;0.85;0.77;;;7.70;99.90;;;;;;4978817;28;20057;-66
2023/05/18 03:35:48;;;;;;;2.10;0.75;;;7.70;99.90;;;;;;4983481;28;20133;-66
2023/05/18 03:38:15;;;;;;;2.50;0.85;;;7.70;99.90;;;;;;4983219;28;20054;-61
2023/05/18 03:40:47;;;;;;;1.52;0.70;;;7.70;99.90;;;;;;4977382;28;20488;-64
2023/05/18 03:43:14;;;;;;;3.45;0.70;;;7.70;99.90;;;;;;4982267;28;20054;-70
2023/05/18 03:45:43;;;;;;;4.38;0.77;;;7.70;99.90;;;;;;4973515;28;20065;-68
2023/05/18 03:48:11;;;;;;;1.80;0.60;;;7.80;99.90;;;;;;4980776;28;20059;-65
2023/05/18 03:50:38;;;;;;;4.88;0.60;;;7.80;99.90;;;;;;4966860;28;20050;-66
2023/05/18 03:53:06;;;;;;;2.97;1.50;;;7.80;99.90;;;;;;4983167;28;20137;-65
2023/05/18 03:55:34;;;;;;;2.78;0.82;;;7.80;99.90;;;;;;4979833;28;20145;-69
2023/05/18 03:58:02;;;;;;;2.28;1.00;;;7.80;99.90;;;;;;4981004;28;20096;-61
2023/05/18 04:00:30;;;;;;;1.90;0.65;;;7.90;99.90;;;;;;4995728;28;20580;-63
2023/05/18 04:02:57;;;;;;;6.30;1.45;;;7.90;99.90;;;;;;5002361;28;20435;-63
2023/05/18 04:05:24;;;;;;;3.10;0.93;;;7.90;99.90;;;;;;4981163;28;20058;-64
2023/05/18 04:07:51;;;;;;;1.30;0.80;;;7.90;99.90;;;;;;5002637;28;20050;-66
2023/05/18 04:10:20;;;;;;;1.85;0.80;;;7.90;99.90;;;;;;4985036;28;20053;-61
2023/05/18 04:12:47;;;;;;;3.70;0.88;;;8.00;99.90;;;;;;4984122;28;20393;-60
2023/05/18 04:15:15;;;;;;;15.02;2.30;;;7.90;99.90;;;;;;4987078;28;20165;-66
2023/05/18 04:17:45;;;;;;;5.00;2.50;;;7.90;99.90;;;;;;5001590;28;20065;-62
2023/05/18 04:20:13;;;;;;;3.25;1.58;;;7.90;99.90;;;;;;5002653;28;20053;-64
2023/05/18 04:22:42;;;;;;;1.67;0.93;;;8.00;99.90;;;;;;5000204;28;20160;-61
2023/05/18 04:25:12;;;;;;;7.65;0.90;;;8.00;99.90;;;;;;5000903;28;20054;-67
2023/05/18 04:27:41;;;;;;;1.42;0.65;;;8.00;99.90;;;;;;4982405;28;20050;-69
2023/05/18 04:30:10;;;;;;;5.38;1.17;;;8.00;99.90;;;;;;5001245;28;20065;-66
2023/05/18 04:32:41;;;;;;;3.63;0.77;;;8.00;99.90;;;;;;4982772;28;20056;-62
2023/05/18 04:35:10;;;;;;;2.83;1.20;;;8.00;99.90;;;;;;5003520;28;20050;-64
2023/05/18 04:37:39;;;;;;;1.48;0.73;;;8.00;99.90;;;;;;4998975;28;20069;-64
2023/05/18 04:40:15;;;;;;;3.63;1.08;;;8.10;99.90;;;;;;4983340;28;20756;-65
2023/05/18 04:42:46;;;;;;;1.90;0.85;;;8.10;99.90;;;;;;4984212;28;20125;-66
2023/05/18 04:45:19;;;;;;;4.57;1.23;;;8.10;99.90;;;;;;4982809;28;20053;-60
2023/05/18 04:47:51;;;;;;;3.63;0.80;;;8.10;99.90;;;;;;4998765;28;20404;-61
2023/05/18 04:50:24;;;;;;;6.93;0.90;;;8.10;99.90;;;;;;4984275;28;20064;-69
2023/05/18 04:52:52;;;;;;;1.00;0.50;;;8.10;99.90;;;;;;5000816;28;20404;-70
2023/05/18 04:55:27;;;;;;;1.27;0.70;;;8.10;99.90;;;;;;4981294;28;20836;-63
2023/05/18 04:58:13;;;;;;;3.95;0.88;;;8.20;99.90;;;;;;4981799;28;20407;-60
2023/05/18 05:00:44;;;;;;;2.65;1.27;;;8.20;99.90;;;;;;4984100;28;20496;-65
2023/05/18 05:03:11;;;;;;;5.13;2.05;;;8.20;99.90;;;;;;5001117;28;20050;-60
2023/05/18 05:05:38;;;;;;;5.57;1.27;;;8.20;99.90;;;;;;4984057;28;20492;-62
2023/05/18 05:08:06;;;;;;;1.95;0.80;;;8.20;99.90;;;;;;4986356;28;20081;-65
2023/05/18 05:10:33;;;;;;;2.95;1.27;;;8.20;99.90;;;;;;4981323;28;20046;-60
2023/05/18 05:12:59;;;;;;;3.22;1.00;;;8.20;99.90;;;;;;5001067;28;20050;-63
2023/05/18 05:15:26;;;;;;;0.85;0.50;;;8.20;99.90;;;;;;4984350;28;20061;-66
2023/05/18 05:17:54;;;;;;;1.02;0.77;;;8.20;99.90;;;;;;5000761;28;20050;-61
2023/05/18 05:20:21;;;;;;;4.28;0.85;;;8.20;99.90;;;;;;5002733;28;20096;-66
2023/05/18 05:22:48;;;;;;;3.20;0.95;;;8.30;99.90;;;;;;4984283;28;20491;-65
2023/05/18 05:25:20;;;;;;;4.93;0.60;;;8.30;99.90;;;;;;4980521;28;20062;-64
2023/05/18 05:27:48;;;;;;;3.55;1.27;;;8.20;99.90;;;;;;4982984;28;20200;-62
2023/05/18 05:30:18;;;;;;;2.77;0.87;;;8.30;99.90;;;;;;4998141;28;20054;-66
2023/05/18 05:32:45;;;;;;;2.85;1.23;;;8.30;99.90;;;;;;4984783;28;20144;-61
2023/05/18 05:35:12;;;;;;;4.82;0.90;;;8.30;99.90;;;;;;5004432;28;20057;-70
2023/05/18 05:37:40;;;;;;;1.35;1.02;;;8.30;99.90;;;;;;4985835;28;20380;-64
2023/05/18 05:40:08;;;;;;;2.20;0.55;;;8.20;99.90;;;;;;4985169;28;20252;-61
2023/05/18 05:42:43;;;;;;;2.47;0.63;;;8.20;99.90;;;;;;4979266;28;20053;-62
2023/05/18 05:45:11;;;;;;;5.32;1.88;;;8.20;99.90;;;;;;4988154;28;20100;-62
2023/05/18 05:48:00;;;;;;;8.60;0.88;;;8.20;99.90;;;;;;4986553;28;20168;-67
2023/05/18 05:50:29;;;;;;;2.92;0.82;;;8.20;99.90;;;;;;4985660;28;20050;-65
2023/05/18 05:52:58;;;;;;;4.47;0.97;;;8.30;99.90;;;;;;4987345;28;20507;-66
2023/05/18 05:55:27;;;;;;;1.25;0.85;;;8.40;99.90;;;;;;4984460;28;20387;-66
2023/05/18 05:57:54;;;;;;;3.05;1.15;;;8.30;99.90;;;;;;4995175;28;20163;-64
2023/05/18 06:00:23;;;;;;;2.42;1.00;;;8.40;99.90;;;;;;5004791;28;20081;-66
2023/05/18 06:02:57;;;;;;;2.17;0.90;;;8.40;99.90;;;;;;4985380;28;20057;-66
2023/05/18 06:05:30;;;;;;;5.03;1.15;;;8.50;99.90;;;;;;4983956;28;20419;-65
2023/05/18 06:07:58;;;;;;;2.50;0.88;;;8.50;99.90;;;;;;4986359;28;20061;-66
2023/05/18 06:10:25;;;;;;;5.65;0.93;;;8.50;99.90;;;;;;4986345;28;20067;-63
2023/05/18 06:12:52;;;;;;;2.78;1.58;;;8.50;99.90;;;;;;4979806;28;20061;-69
2023/05/18 06:15:23;;;;;;;3.88;1.30;;;8.50;99.90;;;;;;4985817;28;20053;-62
2023/05/18 06:17:50;;;;;;;1.20;0.70;;;8.50;99.90;;;;;;4985435;28;20120;-69
2023/05/18 06:20:17;;;;;;;3.67;0.98;;;8.60;99.90;;;;;;4986420;28;20050;-62
2023/05/18 06:22:44;;;;;;;3.78;1.10;;;8.50;99.90;;;;;;5002839;28;20062;-66
2023/05/18 06:25:21;;;;;;;7.32;1.85;;;8.60;99.90;;;;;;4984235;28;20077;-65
2023/05/18 06:28:08;;;;;;;6.90;1.38;;;8.60;99.90;;;;;;5000306;28;20077;-70
2023/05/18 06:30:58;;;;;;;3.10;1.25;;;8.60;99.90;;;;;;5000029;28;20058;-63
2023/05/18 06:33:43;;;;;;;2.80;1.20;;;8.50;99.90;;;;;;5002879;28;20188;-67
2023/05/18 06:36:11;;;;;;;3.30;1.20;;;8.50;99.90;;;;;;4999296;28;20491;-61
2023/05/18 06:38:37;;;;;;;1.92;0.93;;;8.70;99.90;;;;;;4982047;28;20054;-68
2023/05/18 06:41:05;;;;;;;4.97;1.73;;;8.70;99.90;;;;;;4999904;28;20081;-66
2023/05/18 06:43:32;;;;;;;3.10;0.80;;;8.80;99.90;;;;;;4984615;28;20050;-69
2023/05/18 06:46:22;;;;;;;1.45;0.90;;;8.80;99.90;;;;;;4992966;28;20074;-65
2023/05/18 06:48:53;;;;;;;2.42;1.00;;;8.80;99.90;;;;;;4986484;28;20054;-64
2023/05/18 06:51:21;;;;;;;0.45;0.45;;;8.90;99.90;;;;;;4991351;28;20062;-61
2023/05/18 06:53:49;;;;;;;1.92;1.10;;;8.90;99.90;;;;;;4986306;28;20045;-65
2023/05/18 06:56:17;;;;;;;2.67;1.05;;;8.90;99.90;;;;;;4984126;28;20049;-68
2023/05/18 06:58:45;;;;;;;2.35;0.85;;;9.00;99.90;;;;;;4985099;28;20149;-62
2023/05/18 07:01:12;;;;;;;2.40;1.00;;;9.00;99.90;;;;;;4982518;28;20046;-63
2023/05/18 07:03:39;;;;;;;3.40;1.27;;;9.00;99.90;;;;;;5002190;28;20410;-74
2023/05/18 07:06:06;;;;;;;3.35;1.13;;;8.90;99.90;;;;;;5004296;28;20057;-65
2023/05/18 07:08:35;;;;;;;2.35;1.15;;;8.90;99.90;;;;;;5004964;28;20069;-61
2023/05/18 07:11:03;;;;;;;3.25;0.98;;;8.90;99.90;;;;;;5001609;28;20065;-61
2023/05/18 07:13:30;;;;;;;2.25;0.73;;;8.90;99.90;;;;;;5001276;28;20049;-64
2023/05/18 07:15:57;;;;;;;1.67;1.15;;;8.80;99.90;;;;;;5004219;28;20235;-61
2023/05/18 07:18:25;;;;;;;1.08;0.57;;;8.90;99.90;;;;;;5002015;28;20065;-72
2023/05/18 07:20:52;;;;;;;3.75;1.02;;;9.00;99.90;;;;;;5002546;28;20080;-69
2023/05/18 07:23:19;;;;;;;1.75;0.98;;;9.00;99.90;;;;;;5002512;28;20104;-63
2023/05/18 07:25:47;;;;;;;1.92;0.90;;;9.00;99.90;;;;;;5002168;28;20066;-68
2023/05/18 07:28:14;;;;;;;4.00;1.25;;;9.10;99.90;;;;;;5002607;28;20053;-69
2023/05/18 07:30:41;;;;;;;2.03;0.90;;;9.20;99.90;;;;;;5004307;28;20120;-64
2023/05/18 07:33:08;;;;;;;2.05;0.80;;;9.30;99.90;;;;;;4999492;28;20670;-61
2023/05/18 07:35:35;;;;;;;1.83;0.80;;;9.40;99.90;;;;;;5003596;28;20512;-61
2023/05/18 07:38:02;;;;;;;1.25;0.75;;;9.40;99.90;;;;;;5003239;28;20486;-64
2023/05/18 07:40:29;;;;;;;2.08;0.95;;;9.50;99.90;;;;;;5003440;28;20138;-60
2023/05/18 07:42:56;;;;;;;1.73;0.80;;;9.60;99.90;;;;;;5001751;28;20451;-64
2023/05/18 07:45:23;;;;;;;1.95;0.75;;;9.60;99.90;;;;;;5002671;28;20068;-65
2023/05/18 07:47:50;;;;;;;2.63;0.85;;;9.60;99.90;;;;;;4999071;28;20064;-61
2023/05/18 07:50:18;;;;;;;1.65;0.80;;;9.50;99.90;;;;;;4999024;28;20050;-61
2023/05/18 07:52:45;;;;;;;1.98;0.70;;;9.60;99.90;;;;;;5000134;28;20121;-69
2023/05/18 07:55:12;;;;;;;3.22;0.90;;;9.60;99.90;;;;;;5002156;28;20065;-61
2023/05/18 07:57:39;;;;;;;2.70;1.00;;;9.40;99.90;;;;;;5001164;28;20557;-69
2023/05/18 08:00:07;;;;;;;7.57;1.27;;;9.50;99.90;;;;;;5002836;28;20068;-62
2023/05/18 08:02:42;;;;;;;2.67;1.40;;;9.50;99.90;;;;;;5002371;28;20060;-68
2023/05/18 08:05:09;;;;;;;1.02;0.50;;;9.50;99.90;;;;;;5001710;28;20042;-63
2023/05/18 08:07:37;;;;;;;1.48;0.98;;;9.50;99.90;;;;;;5002714;28;20133;-67
2023/05/18 08:10:04;;;;;;;1.73;0.68;;;9.70;99.90;;;;;;4997704;28;20112;-62
2023/05/18 08:12:31;;;;;;;1.85;0.88;;;9.80;99.90;;;;;;5003798;28;20125;-64
2023/05/18 08:14:58;;;;;;;4.47;0.90;;;9.70;99.90;;;;;;5003039;28;20053;-63
2023/05/18 08:17:25;;;;;;;1.73;1.00;;;9.70;99.90;;;;;;5001571;28;20589;-61
2023/05/18 08:19:54;;;;;;;1.40;1.08;;;9.70;99.90;;;;;;5002046;28;20064;-67
2023/05/18 08:22:21;;;;;;;1.17;0.63;;;9.70;99.90;;;;;;5000070;28;20066;-65
2023/05/18 08:24:48;;;;;;;1.58;0.55;;;9.70;99.90;;;;;;5001825;28;20045;-69
2023/05/18 08:27:14;;;;;;;1.45;0.75;;;9.60;99.90;;;;;;5001301;28;20080;-69
2023/05/18 08:29:41;;;;;;;3.88;0.75;;;9.60;99.90;;;;;;5000409;28;20658;-66
2023/05/18 08:32:08;;;;;;;3.42;0.50;;;9.70;99.90;;;;;;5002341;28;20436;-66
2023/05/18 08:34:35;;;;;;;1.25;0.80;;;9.70;99.90;;;;;;4982608;28;20472;-71
2023/05/18 08:37:02;;;;;;;10.55;1.40;;;9.70;99.90;;;;;;4999930;28;20056;-66
2023/05/18 08:39:32;;;;;;;3.67;2.15;;;9.80;99.90;;;;;;5001898;28;20144;-65
2023/05/18 08:42:15;;;;;;;1.42;0.80;;;9.70;99.90;;;;;;5001266;28;20042;-61
2023/05/18 08:44:53;;;;;;;3.95;0.80;;;9.60;99.90;;;;;;5002493;28;20076;-60
2023/05/18 08:47:25;;;;;;;6.60;1.25;;;9.60;99.90;;;;;;5003674;28;20053;-61
2023/05/18 08:49:55;;;;;;;0.70;0.60;;;9.70;99.90;;;;;;5000948;28;20468;-59
2023/05/18 08:52:27;;;;;;;0.57;0.38;;;9.60;99.90;;;;;;5000093;28;20054;-70
2023/05/18 08:54:58;;;;;;;1.83;0.98;;;9.70;99.90;;;;;;4997816;28;20069;-67
2023/05/18 08:57:28;;;;;;;1.70;0.75;;;9.80;99.90;;;;;;5000699;28;20050;-74
2023/05/18 08:59:56;;;;;;;1.87;0.80;;;9.70;99.90;;;;;;5001833;28;20526;-60
2023/05/18 09:02:24;;;;;;;2.88;0.98;;;9.70;99.90;;;;;;5002059;28;20184;-69
2023/05/18 09:04:52;;;;;;;2.15;1.17;;;9.80;99.90;;;;;;4999476;28;20045;-66
2023/05/18 09:07:20;;;;;;;4.32;1.10;;;9.90;99.90;;;;;;5001103;28;20180;-63
2023/05/18 09:09:48;;;;;;;2.88;0.88;;;9.80;99.90;;;;;;4997242;28;20531;-69
2023/05/18 09:12:17;;;;;;;1.63;0.80;;;9.80;99.90;;;;;;4999322;28;20132;-66
2023/05/18 09:14:45;;;;;;;1.97;1.50;;;9.90;99.90;;;;;;5001518;28;20107;-62
2023/05/18 09:17:12;;;;;;;2.10;0.98;;;9.60;99.90;;;;;;5001501;28;20112;-69
2023/05/18 09:19:39;;;;;;;2.45;1.05;;;9.70;99.90;;;;;;4999736;28;20135;-65
2023/05/18 09:22:06;;;;;;;3.40;0.82;;;9.80;99.90;;;;;;5001476;28;20119;-62
2023/05/18 09:24:33;;;;;;;2.03;1.00;;;9.80;99.90;;;;;;4997732;28;20107;-60
2023/05/18 09:27:00;;;;;;;4.43;1.10;;;9.90;99.90;;;;;;5000729;28;20597;-65
2023/05/18 09:29:27;;;;;;;0.70;0.40;;;10.10;99.90;;;;;;5000284;28;20521;-63
2023/05/18 09:31:54;;;;;;;0.68;0.63;;;10.10;99.90;;;;;;5000693;28;20080;-70
2023/05/18 09:34:23;;;;;;;1.27;0.88;;;10.00;99.90;;;;;;5001316;28;20508;-60
2023/05/18 09:36:55;;;;;;;3.40;0.60;;;10.00;99.90;;;;;;5002430;28;20060;-63
2023/05/18 09:39:22;;;;;;;4.95;1.38;;;10.20;99.90;;;;;;5002331;28;20563;-61
2023/05/18 09:41:56;;;;;;;4.40;0.95;;;10.30;99.90;;;;;;4995728;28;20449;-62
2023/05/18 09:44:30;;;;;;;2.63;0.70;;;10.10;99.90;;;;;;5002649;28;20137;-64
2023/05/18 09:46:57;;;;;;;2.28;0.90;;;9.90;99.90;;;;;;5000317;28;20058;-64
2023/05/18 09:49:24;;;;;;;1.75;0.70;;;10.10;99.90;;;;;;4998637;28;20046;-67
2023/05/18 09:51:52;;;;;;;2.95;1.38;;;10.10;99.90;;;;;;5002552;28;20514;-63
2023/05/18 09:54:19;;;;;;;2.05;0.70;;;10.20;99.90;;;;;;5001519;28;20103;-67
2023/05/18 09:56:49;;;;;;;4.88;0.93;;;10.10;99.90;;;;;;4998256;28;20064;-70
2023/05/18 09:59:35;;;;;;;1.48;1.38;;;10.10;99.90;;;;;;5000799;28;20058;-65
2023/05/18 10:02:11;;;;;;;1.58;0.77;;;10.00;99.90;;;;;;4995720;28;20083;-60
2023/05/18 10:04:41;;;;;;;3.88;0.95;;;10.20;99.90;;;;;;5001820;28;20084;-66
2023/05/18 10:07:13;;;;;;;1.05;0.98;;;10.20;99.90;;;;;;4999452;28;20137;-64
2023/05/18 10:09:41;;;;;;;1.80;0.93;;;10.30;99.90;;;;;;4997661;28;20457;-65
2023/05/18 10:12:17;;;;;;;4.32;1.05;;;10.40;99.90;;;;;;4996084;28;20058;-67
2023/05/18 10:14:45;;;;;;;2.80;0.65;;;10.60;99.90;;;;;;5002922;28;20130;-62
2023/05/18 10:17:13;;;;;;;4.03;0.77;;;10.40;99.90;;;;;;5005375;28;20577;-60
2023/05/18 10:19:43;;;;;;;;;;;10.50;99.90;;;;;;5002557;28;20139;-61
2023/05/18 10:22:10;;;;;;;4.28;1.20;;;10.60;99.90;;;;;;5004871;28;19926;-62
2023/05/18 10:24:44;;;;;;;5.28;0.50;;;10.80;99.90;;;;;;5005487;28;21044;-66
2023/05/18 10:27:13;;;;;;;4.28;1.88;;;10.80;99.90;;;;;;5001150;28;20061;-65
2023/05/18 10:29:41;;;;;;;7.50;1.10;;;10.80;99.90;;;;;;4999483;28;20463;-65
2023/05/18 10:32:11;;;;;;;1.83;0.85;;;10.70;99.90;;;;;;5006462;28;20124;-64
2023/05/18 10:34:40;;;;;;;1.55;0.43;;;10.60;99.90;;;;;;5003337;28;20128;-68
2023/05/18 10:37:09;;;;;;;3.08;1.35;;;10.70;99.90;;;;;;5003832;28;20424;-65
2023/05/18 10:39:39;;;;;;;2.05;0.60;;;10.70;99.90;;;;;;4999376;28;20072;-67
2023/05/18 10:42:08;;;;;;;1.25;0.80;;;10.90;99.90;;;;;;5002839;28;20068;-63
2023/05/18 10:44:35;;;;;;;1.15;0.52;;;11.00;99.90;;;;;;4999655;28;20045;-61
2023/05/18 10:47:04;;;;;;;1.88;0.45;;;10.80;99.90;;;;;;5004254;28;20057;-67
2023/05/18 10:49:32;;;;;;;3.60;1.48;;;10.60;99.90;;;;;;5000685;28;20050;-60
2023/05/18 10:52:01;;;;;;;2.22;0.82;;;10.60;99.90;;;;;;5005420;28;20552;-65
2023/05/18 10:54:29;;;;;;;2.03;0.77;;;10.70;99.90;;;;;;5003396;28;20759;-61
2023/05/18 10:56:56;;;;;;;4.72;1.20;;;10.90;99.90;;;;;;5002161;28;20045;-72
2023/05/18 10:59:23;;;;;;;2.50;1.05;;;11.00;99.90;;;;;;4978849;28;20057;-67
2023/05/18 11:01:52;;;;;;;3.90;1.58;;;10.80;99.90;;;;;;5001925;28;20487;-74
2023/05/18 11:04:25;;;;;;;2.60;0.77;;;10.60;99.90;;;;;;5003539;28;20060;-63
2023/05/18 11:07:01;;;;;;;4.00;1.13;;;10.80;99.90;;;;;;5002904;28;20129;-72
2023/05/18 11:09:29;;;;;;;3.33;0.55;;;10.90;99.90;;;;;;5003429;28;20062;-73
2023/05/18 11:11:57;;;;;;;3.55;0.93;;;10.90;99.90;;;;;;5003175;28;20074;-64
2023/05/18 11:14:28;;;;;;;4.65;0.70;;;11.00;99.90;;;;;;5004311;28;20435;-65
2023/05/18 11:17:20;;;;;;;1.80;1.58;;;11.10;99.90;;;;;;5001374;28;20077;-67
2023/05/18 11:20:11;;;;;;;2.88;1.75;;;11.10;99.90;;;;;;4999688;28;20053;-68
2023/05/18 11:22:46;;;;;;;2.53;0.90;;;11.00;99.90;;;;;;5002318;28;20057;-67
2023/05/18 11:25:32;;;;;;;4.28;0.88;;;11.20;99.90;;;;;;5004540;28;20575;-64
2023/05/18 11:28:04;;;;;;;1.10;0.77;;;11.30;99.90;;;;;;5001324;28;20050;-69
2023/05/18 11:30:39;;;;;;;1.40;0.57;;;11.00;99.90;;;;;;5004266;28;20073;-61
2023/05/18 11:33:20;;;;;;;3.47;0.98;;;10.80;99.90;;;;;;5000560;28;20049;-64
2023/05/18 11:36:10;;;;;;;4.30;0.95;;;10.80;99.90;;;;;;5003328;28;20500;-70
2023/05/18 11:38:53;;;;;;;2.88;1.20;;;10.70;99.90;;;;;;5005081;28;20482;-66
2023/05/18 11:41:33;;;;;;;3.92;1.10;;;10.80;99.90;;;;;;5002540;28;20066;-66
2023/05/18 11:44:15;;;;;;;1.85;0.85;;;11.00;99.90;;;;;;5003330;28;20049;-64
2023/05/18 11:46:53;;;;;;;2.70;0.93;;;11.20;99.90;;;;;;5004155;28;20360;-63
2023/05/18 11:49:46;;;;;;;6.13;0.82;;;11.20;99.90;;;;;;5000459;28;20116;-70
2023/05/18 11:52:12;;;;;;;1.33;1.00;;;11.00;99.90;;;;;;5003969;28;20054;-71
2023/05/18 11:54:59;;;;;;;4.13;0.75;;;11.10;99.90;;;;;;5004077;28;20057;-73
2023/05/18 11:57:42;;;;;;;2.33;0.68;;;11.40;99.90;;;;;;5001127;28;20081;-65
2023/05/18 12:00:10;;;;;;;1.50;0.52;;;11.20;99.90;;;;;;5003062;28;20076;-62
2023/05/18 12:02:45;;;;;;;4.68;1.27;;;11.30;99.90;;;;;;4999454;28;20184;-73
2023/05/18 12:05:13;;;;;;;1.52;0.70;;;11.40;99.90;;;;;;4997923;28;20065;-71
2023/05/18 12:07:41;;;;;;;5.00;1.40;;;11.30;99.90;;;;;;5001200;28;20092;-65
2023/05/18 12:10:09;;;;;;;2.05;0.80;;;11.20;99.90;;;;;;5003088;28;20065;-64
2023/05/18 12:12:37;;;;;;;3.25;1.10;;;11.40;99.90;;;;;;5003028;28;20573;-68
2023/05/18 12:15:05;;;;;;;4.35;1.00;;;11.70;99.90;;;;;;5003568;28;20127;-75
2023/05/18 12:17:43;;;;;;;2.60;1.05;;;11.80;99.90;;;;;;5004240;28;20142;-62
2023/05/18 12:20:14;;;;;;;2.63;1.10;;;12.00;99.90;;;;;;4998714;28;20084;-63
2023/05/18 12:22:48;;;;;;;3.63;0.90;;;12.00;99.90;;;;;;5003442;28;20166;-66
2023/05/18 12:25:15;;;;;;;5.00;1.67;;;12.20;99.90;;;;;;5003110;28;20054;-68
2023/05/18 12:27:44;;;;;;;2.40;0.88;;;12.40;99.90;;;;;;5002752;28;20074;-66
2023/05/18 12:30:16;;;;;;;2.55;0.90;;;12.60;99.90;;;;;;5005969;28;20065;-64
2023/05/18 12:32:45;;;;;;;1.40;1.10;;;12.70;99.90;;;;;;5002553;28;20060;-68
2023/05/18 12:35:12;;;;;;;2.30;1.00;;;12.70;99.90;;;;;;5002904;28;20053;-77
2023/05/18 12:37:43;;;;;;;3.35;1.02;;;12.70;99.90;;;;;;5000123;28;20384;-64
2023/05/18 12:40:18;;;;;;;2.78;1.30;;;12.50;99.90;;;;;;5001352;28;20700;-65
2023/05/18 12:42:59;;;;;;;10.48;1.55;;;12.40;99.90;;;;;;5002681;28;20145;-62
2023/05/18 12:45:33;;;;;;;1.75;0.70;;;12.20;99.90;;;;;;5001116;28;20530;-66
2023/05/18 12:48:04;;;;;;;1.35;1.23;;;12.10;99.90;;;;;;5001034;28;20487;-62
2023/05/18 12:50:32;;;;;;;2.60;1.10;;;12.30;99.90;;;;;;5002783;28;20050;-64
2023/05/18 12:53:00;;;;;;;3.92;0.85;;;12.00;99.90;;;;;;5000279;28;20048;-68
2023/05/18 12:55:29;;;;;;;1.80;0.80;;;12.20;99.90;;;;;;5001389;28;20046;-64
2023/05/18 12:58:04;;;;;;;3.53;1.20;;;12.40;99.90;;;;;;5002245;28;20064;-67
2023/05/18 13:00:35;;;;;;;1.70;0.60;;;12.30;99.90;;;;;;5000731;28;20046;-65
2023/05/18 13:03:10;;;;;;;1.67;0.60;;;12.60;99.90;;;;;;5003341;28;20046;-61
2023/05/18 13:06:00;;;;;;;2.90;0.82;;;12.80;99.90;;;;;;5000696;28;20050;-63
2023/05/18 13:08:27;;;;;;;2.80;0.65;;;12.60;99.90;;;;;;4999396;28;20080;-61
2023/05/18 13:11:02;;;;;;;2.35;0.52;;;12.80;99.90;;;;;;4985008;28;20068;-70
2023/05/18 13:13:56;;;;;;;1.85;1.35;;;12.40;99.90;;;;;;5001601;28;20054;-65